Time;durP1;ratioP1;P1;durP2;ratioP2;P2;SDS_P1;SDS_P2;PMS_P1;PMS_P2;Temp;Humidity;BMP_temperature;BMP_pressure;BME280_temperature;BME280_humidity;BME280_pressure;Samples;Min_cycle;Max_cycle;Signal;HPM_P1;HPM_P2
2022/10/25 00:00:59;;;;;;;12.47;8.27;;;;;;;12.59;100.00;101734.72;2054079;28;20253;-65
2022/10/25 00:02:00;;;;;;;10.87;7.30;;;;;;;12.77;100.00;101757.50;2053360;28;20210;-65
2022/10/25 00:03:00;;;;;;;11.30;8.07;;;;;;;12.76;100.00;101758.72;2055457;28;20183;-65
2022/10/25 00:04:01;;;;;;;16.00;8.00;;;;;;;12.73;100.00;101756.75;2053668;28;20614;-65
2022/10/25 00:05:03;;;;;;;11.13;7.50;;;;;;;12.13;100.00;101690.06;2054059;28;20189;-66
2022/10/25 00:06:03;;;;;;;13.57;8.17;;;;;;;12.62;100.00;101761.69;2053860;28;20682;-65
2022/10/25 00:07:04;;;;;;;12.33;7.57;;;;;;;12.43;100.00;101737.31;2054354;28;20484;-65
2022/10/25 00:08:05;;;;;;;17.57;8.20;;;;;;;12.63;100.00;101764.06;2054234;28;20187;-65
2022/10/25 00:09:06;;;;;;;17.30;8.40;;;;;;;12.62;100.00;101759.72;2055901;28;20189;-65
2022/10/25 00:10:07;;;;;;;18.13;8.07;;;;;;;12.68;100.00;101771.94;2053657;28;20465;-65
2022/10/25 00:11:22;;;;;;;31.63;10.03;;;;;;;12.50;100.00;101726.13;2054910;28;20198;-65
2022/10/25 00:12:22;;;;;;;28.40;9.27;;;;;;;12.70;100.00;101761.16;2054253;28;20433;-65
2022/10/25 00:13:23;;;;;;;20.00;8.33;;;;;;;12.69;100.00;101759.59;2054546;28;20445;-65
2022/10/25 00:14:23;;;;;;;45.47;9.70;;;;;;;12.12;100.00;101671.84;2053716;28;20206;-64
2022/10/25 00:15:24;;;;;;;17.47;9.00;;;;;;;12.70;100.00;101752.81;2054169;28;20199;-65
2022/10/25 00:16:28;;;;;;;29.33;9.17;;;;;;;12.73;100.00;101751.19;2055818;28;20190;-65
2022/10/25 00:17:28;;;;;;;34.20;9.47;;;;;;;12.73;100.00;101752.00;2055108;28;20642;-65
2022/10/25 00:18:29;;;;;;;25.50;9.63;;;;;;;12.74;100.00;101747.19;2054213;28;20437;-64
2022/10/25 00:19:29;;;;;;;27.97;9.27;;;;;;;12.74;100.00;101747.19;2053824;28;20281;-64
2022/10/25 00:20:30;;;;;;;29.63;9.87;;;;;;;12.72;100.00;101744.84;2054012;28;20270;-65
2022/10/25 00:21:30;;;;;;;31.13;9.20;;;;;;;12.05;100.00;101642.16;2054300;28;20207;-64
2022/10/25 00:22:31;;;;;;;28.97;9.10;;;;;;;12.08;100.00;101654.41;2056018;28;20191;-64
2022/10/25 00:23:31;;;;;;;26.47;9.07;;;;;;;12.70;100.00;101754.84;2053156;28;20196;-64
2022/10/25 00:24:32;;;;;;;24.43;8.27;;;;;;;12.70;100.00;101750.03;2054197;28;20648;-64
2022/10/25 00:25:32;;;;;;;23.90;9.30;;;;;;;12.70;100.00;101747.25;2053987;28;20206;-64
2022/10/25 00:26:34;;;;;;;14.50;7.53;;;;;;;12.70;100.00;101752.03;2054191;28;20208;-64
2022/10/25 00:27:35;;;;;;;24.30;8.53;;;;;;;12.71;100.00;101753.63;2053669;28;20183;-64
2022/10/25 00:28:35;;;;;;;26.17;8.40;;;;;;;12.67;100.00;101748.13;2056018;28;20824;-64
2022/10/25 00:29:36;;;;;;;19.93;8.53;;;;;;;12.69;100.00;101753.22;2053464;28;20447;-64
2022/10/25 00:30:36;;;;;;;19.03;7.67;;;;;;;12.70;100.00;101752.81;2054039;28;20190;-64
2022/10/25 00:31:37;;;;;;;18.63;8.27;;;;;;;12.72;100.00;101752.41;2053526;28;20633;-64
2022/10/25 00:32:38;;;;;;;24.73;8.23;;;;;;;12.71;100.00;101753.63;2054073;28;20276;-64
2022/10/25 00:33:39;;;;;;;12.13;7.60;;;;;;;12.72;100.00;101744.84;2053944;28;20949;-64
2022/10/25 00:34:40;;;;;;;10.03;7.10;;;;;;;12.72;100.00;101752.41;2055729;28;20186;-64
2022/10/25 00:35:40;;;;;;;13.47;7.67;;;;;;;12.71;100.00;101748.81;2053653;28;20481;-64
2022/10/25 00:36:41;;;;;;;17.63;8.23;;;;;;;12.32;100.00;101681.88;2053885;28;20238;-64
2022/10/25 00:37:41;;;;;;;14.10;7.53;;;;;;;12.69;100.00;101744.88;2053285;28;20194;-64
2022/10/25 00:38:42;;;;;;;13.30;7.23;;;;;;;12.32;100.00;101692.22;2053581;28;20201;-64
2022/10/25 00:39:44;;;;;;;11.00;6.30;;;;;;;12.53;100.00;101712.16;2053347;28;20179;-64
2022/10/25 00:40:45;;;;;;;10.87;6.43;;;;;;;12.76;100.00;101744.81;2055716;28;20430;-64
2022/10/25 00:41:45;;;;;;;13.70;6.90;;;;;;;12.77;100.00;101738.81;2053435;28;20446;-64
2022/10/25 00:42:46;;;;;;;10.93;6.70;;;;;;;12.77;100.00;101735.25;2054082;28;20214;-64
2022/10/25 00:43:49;;;;;;;14.50;6.90;;;;;;;12.77;100.00;101735.25;2053771;28;20262;-64
2022/10/25 00:44:54;;;;;;;10.77;7.43;;;;;;;12.75;100.00;101724.53;2053923;28;20827;-64
2022/10/25 00:45:54;;;;;;;14.67;7.27;;;;;;;12.78;100.00;101722.91;2053563;28;20527;-64
2022/10/25 00:46:55;;;;;;;12.37;7.50;;;;;;;12.78;100.00;101720.91;2054372;28;20433;-64
2022/10/25 00:48:01;;;;;;;12.97;7.20;;;;;;;12.77;100.00;101726.91;2055338;28;20200;-64
2022/10/25 00:49:09;;;;;;;12.50;6.73;;;;;;;12.80;100.00;101717.72;2053045;28;20184;-64
2022/10/25 00:50:18;;;;;;;13.10;7.30;;;;;;;12.46;100.00;101661.44;2052886;28;20434;-64
2022/10/25 00:51:20;;;;;;;14.47;6.87;;;;;;;12.78;100.00;101709.00;2059871;28;20527;-64
2022/10/25 00:52:21;;;;;;;11.93;6.40;;;;;;;12.66;100.00;101682.53;2053775;28;20454;-64
2022/10/25 00:53:29;;;;;;;12.33;6.80;;;;;;;12.79;100.00;101702.22;2053503;28;20542;-64
2022/10/25 00:54:38;;;;;;;11.77;7.33;;;;;;;12.77;100.00;101705.44;2052900;28;20194;-64
2022/10/25 00:55:44;;;;;;;10.70;6.97;;;;;;;12.78;100.00;101695.09;2053679;28;20878;-64
2022/10/25 00:56:47;;;;;;;11.53;7.30;;;;;;;12.80;100.00;101698.25;2054012;28;20426;-64
2022/10/25 00:58:17;;;;;;;12.60;7.33;;;;;;;12.78;100.00;101697.88;2055196;28;20519;-64
2022/10/25 00:59:21;;;;;;;11.60;6.83;;;;;;;12.25;100.00;101631.19;2053321;28;20960;-64
2022/10/25 01:00:21;;;;;;;14.03;7.00;;;;;;;12.74;100.00;101711.03;2052896;28;20437;-64
2022/10/25 01:01:23;;;;;;;12.73;7.67;;;;;;;12.69;100.00;101709.53;2055468;28;20438;-64
2022/10/25 01:02:24;;;;;;;14.17;7.33;;;;;;;12.03;100.00;101619.56;2053341;28;20285;-64
2022/10/25 01:03:25;;;;;;;13.13;6.73;;;;;;;12.56;100.00;101713.31;2053673;28;20454;-64
2022/10/25 01:04:27;;;;;;;14.93;7.20;;;;;;;12.61;100.00;101712.84;2053542;28;20246;-64
2022/10/25 01:05:28;;;;;;;14.10;7.50;;;;;;;12.58;100.00;101714.47;2053540;28;20222;-64
2022/10/25 01:06:36;;;;;;;11.93;7.10;;;;;;;12.61;100.00;101712.84;2053196;28;20487;-64
2022/10/25 01:07:36;;;;;;;11.10;7.37;;;;;;;12.58;100.00;101722.81;2052515;28;20190;-64
2022/10/25 01:08:39;;;;;;;11.83;7.57;;;;;;;12.12;100.00;101664.31;2055145;28;20422;-64
2022/10/25 01:09:40;;;;;;;10.67;7.47;;;;;;;12.55;100.00;101723.63;2053688;28;20238;-64
2022/10/25 01:10:41;;;;;;;14.97;7.10;;;;;;;12.57;100.00;101720.44;2053726;28;20435;-64
2022/10/25 01:11:41;;;;;;;8.60;6.60;;;;;;;12.53;100.00;101726.06;2053115;28;20517;-63
2022/10/25 01:12:42;;;;;;;11.93;6.97;;;;;;;12.56;100.00;101738.34;2053033;28;20633;-63
2022/10/25 01:13:42;;;;;;;9.70;6.97;;;;;;;12.52;100.00;101712.56;2053393;28;20194;-64
2022/10/25 01:14:47;;;;;;;10.00;6.90;;;;;;;12.48;100.00;101707.06;2054912;28;20187;-63
2022/10/25 01:15:59;;;;;;;11.73;7.30;;;;;;;12.50;100.00;101715.75;2052989;28;20179;-63
2022/10/25 01:17:07;;;;;;;9.90;6.70;;;;;;;12.49;100.00;101716.19;2053695;28;20537;-64
2022/10/25 01:18:19;;;;;;;12.37;7.80;;;;;;;12.54;100.00;101707.38;2053457;28;20874;-64
2022/10/25 01:19:56;;;;;;;11.03;6.60;;;;;;;12.54;100.00;101707.38;2054079;28;20489;-64
2022/10/25 01:21:14;;;;;;;10.97;7.33;;;;;;;12.55;100.00;101704.19;2054327;28;20415;-64
2022/10/25 01:22:51;;;;;;;10.67;7.00;;;;;;;12.53;100.00;101700.25;2053365;28;20460;-64
2022/10/25 01:24:18;;;;;;;11.90;7.47;;;;;;;12.53;100.00;101703.81;2054126;28;20812;-64
2022/10/25 01:25:37;;;;;;;9.67;6.90;;;;;;;12.51;100.00;101695.09;2052897;28;20453;-64
2022/10/25 01:26:43;;;;;;;9.80;6.83;;;;;;;12.53;100.00;101701.03;2053779;28;20818;-64
2022/10/25 01:27:54;;;;;;;12.57;6.50;;;;;;;12.54;100.00;101690.69;2053363;28;20923;-64
2022/10/25 01:29:31;;;;;;;9.67;6.60;;;;;;;12.43;100.00;101670.59;2053950;28;20500;-64
2022/10/25 01:31:02;;;;;;;11.57;7.13;;;;;;;12.51;100.00;101685.97;2054835;28;20813;-64
2022/10/25 01:32:11;;;;;;;10.03;7.20;;;;;;;12.53;100.00;101680.78;2052834;28;20407;-64
2022/10/25 01:33:38;;;;;;;8.97;6.40;;;;;;;12.54;100.00;101679.56;2053513;28;20450;-65
2022/10/25 01:35:10;;;;;;;11.63;6.67;;;;;;;12.07;100.00;101606.41;2053283;28;20514;-64
2022/10/25 01:36:23;;;;;;;10.17;6.80;;;;;;;12.01;100.00;101605.31;2053335;28;20445;-64
2022/10/25 01:37:40;;;;;;;9.67;6.70;;;;;;;12.51;100.00;101683.19;2053302;28;21014;-64
2022/10/25 01:39:08;;;;;;;10.70;6.60;;;;;;;12.50;100.00;101679.63;2053393;28;20986;-64
2022/10/25 01:40:37;;;;;;;14.43;7.37;;;;;;;12.50;100.00;101685.19;2052833;28;20875;-64
2022/10/25 01:41:59;;;;;;;16.80;7.43;;;;;;;12.51;100.00;101685.97;2053032;28;20434;-64
2022/10/25 01:43:17;;;;;;;13.13;7.93;;;;;;;12.52;100.00;101682.00;2052940;28;20950;-64
2022/10/25 01:44:20;;;;;;;13.37;7.47;;;;;;;12.50;100.00;101679.63;2053148;28;20809;-65
2022/10/25 01:45:31;;;;;;;15.97;7.43;;;;;;;12.50;100.00;101676.84;2053248;28;20438;-64
2022/10/25 01:46:48;;;;;;;12.40;7.10;;;;;;;12.52;100.00;101679.22;2052949;28;20875;-65
2022/10/25 01:48:17;;;;;;;14.57;7.47;;;;;;;12.53;100.00;101669.66;2051615;28;20478;-64
2022/10/25 01:50:02;;;;;;;14.03;6.83;;;;;;;12.51;100.00;101670.06;2053506;28;21122;-64
2022/10/25 01:51:08;;;;;;;11.17;6.27;;;;;;;12.52;100.00;101668.88;2035278;29;20463;-64
2022/10/25 01:52:09;;;;;;;11.97;7.30;;;;;;;12.50;100.00;101674.06;2049168;28;20477;-64
2022/10/25 01:53:11;;;;;;;10.47;6.47;;;;;;;11.58;100.00;101528.53;2053785;28;20445;-64
2022/10/25 01:54:26;;;;;;;11.30;7.10;;;;;;;12.49;100.00;101663.34;2051890;28;20195;-64
2022/10/25 01:55:35;;;;;;;18.33;7.80;;;;;;;12.50;100.00;101671.28;2052784;28;20468;-64
2022/10/25 01:56:45;;;;;;;18.83;7.60;;;;;;;12.25;100.00;101628.41;2052709;28;20466;-64
2022/10/25 01:58:13;;;;;;;15.67;7.37;;;;;;;12.55;100.00;101673.59;2052835;28;20429;-64
2022/10/25 01:59:38;;;;;;;11.97;7.03;;;;;;;12.53;100.00;101662.13;2052701;28;20446;-64
2022/10/25 02:00:52;;;;;;;11.60;6.77;;;;;;;12.51;100.00;101650.59;2053588;28;20506;-64
2022/10/25 02:02:00;;;;;;;9.23;6.50;;;;;;;12.52;100.00;101646.66;2053579;28;20887;-64
2022/10/25 02:03:12;;;;;;;14.33;6.13;;;;;;;12.53;100.00;101650.19;2053520;28;20502;-64
2022/10/25 02:04:24;;;;;;;13.30;6.87;;;;;;;12.52;100.00;101643.88;2052956;28;20978;-64
2022/10/25 02:05:29;;;;;;;18.20;6.67;;;;;;;12.49;100.00;101644.69;2053782;28;21090;-64
2022/10/25 02:06:58;;;;;;;12.73;6.83;;;;;;;12.48;100.00;101653.44;2053371;28;20473;-64
2022/10/25 02:08:12;;;;;;;17.20;7.10;;;;;;;12.12;100.00;101600.38;2052045;28;20452;-63
2022/10/25 02:09:17;;;;;;;14.23;7.23;;;;;;;12.51;100.00;101649.84;2052994;28;20451;-64
2022/10/25 02:10:34;;;;;;;12.43;7.60;;;;;;;12.27;100.00;101610.09;2052635;28;20438;-64
2022/10/25 02:11:35;;;;;;;11.00;6.73;;;;;;;12.46;100.00;101647.53;2053464;28;20441;-64
2022/10/25 02:12:55;;;;;;;11.90;6.60;;;;;;;12.43;100.00;101653.91;2053490;28;20447;-64
2022/10/25 02:14:02;;;;;;;10.77;6.50;;;;;;;12.42;100.00;101647.59;2053413;28;20437;-64
2022/10/25 02:15:27;;;;;;;11.83;6.90;;;;;;;12.41;100.00;101648.00;2053415;28;20524;-64
2022/10/25 02:16:35;;;;;;;10.40;6.73;;;;;;;12.10;100.00;101602.78;2054884;28;20590;-64
2022/10/25 02:17:44;;;;;;;13.90;7.30;;;;;;;12.14;100.00;101606.31;2052442;28;20466;-64
2022/10/25 02:18:49;;;;;;;11.60;7.77;;;;;;;12.10;100.00;101607.56;2052836;28;20452;-64
2022/10/25 02:19:57;;;;;;;19.13;7.57;;;;;;;12.38;100.00;101655.19;2053239;28;20449;-64
2022/10/25 02:20:59;;;;;;;13.37;7.63;;;;;;;12.38;100.00;101646.06;2053325;28;21810;-64
2022/10/25 02:22:02;;;;;;;14.60;7.60;;;;;;;12.37;100.00;101645.28;2053241;28;20518;-64
2022/10/25 02:23:04;;;;;;;15.23;7.63;;;;;;;12.36;100.00;101654.03;2054015;28;20782;-64
2022/10/25 02:24:12;;;;;;;15.27;7.73;;;;;;;12.20;100.00;101637.97;2055357;28;20484;-64
2022/10/25 02:25:13;;;;;;;12.57;7.17;;;;;;;12.38;100.00;101657.16;2053312;28;20483;-64
2022/10/25 02:26:15;;;;;;;14.63;8.00;;;;;;;12.37;100.00;101645.28;2053095;28;20441;-64
2022/10/25 02:27:19;;;;;;;13.60;7.67;;;;;;;12.38;100.00;101649.63;2055118;28;20839;-64
2022/10/25 02:28:25;;;;;;;11.70;7.53;;;;;;;12.38;100.00;101652.41;2053716;28;20447;-64
2022/10/25 02:29:29;;;;;;;13.97;7.93;;;;;;;11.72;100.00;101550.56;2055030;28;20417;-64
2022/10/25 02:30:32;;;;;;;18.60;8.63;;;;;;;12.41;100.00;101657.13;2054810;28;20432;-64
2022/10/25 02:31:36;;;;;;;20.37;8.13;;;;;;;11.80;100.00;101552.84;2055376;28;20962;-64
2022/10/25 02:32:37;;;;;;;21.67;8.00;;;;;;;12.41;100.00;101651.56;2056526;28;20808;-64
2022/10/25 02:33:38;;;;;;;19.03;7.93;;;;;;;12.46;100.00;101653.09;2054875;28;20480;-64
2022/10/25 02:34:39;;;;;;;20.47;7.30;;;;;;;12.43;100.00;101649.16;2054221;28;20441;-64
2022/10/25 02:35:39;;;;;;;16.30;7.87;;;;;;;12.39;100.00;101655.97;2054835;28;20287;-64
2022/10/25 02:36:40;;;;;;;18.23;7.57;;;;;;;12.38;100.00;101659.94;2055232;28;20426;-63
2022/10/25 02:37:41;;;;;;;14.23;7.60;;;;;;;11.55;100.00;101526.59;2054325;28;20214;-64
2022/10/25 02:38:42;;;;;;;13.20;7.30;;;;;;;11.61;100.00;101553.50;2056735;28;20186;-64
2022/10/25 02:39:45;;;;;;;14.77;7.70;;;;;;;12.31;100.00;101663.66;2054696;28;20214;-64
2022/10/25 02:40:45;;;;;;;14.13;8.10;;;;;;;12.22;100.00;101665.34;2054603;28;20904;-64
2022/10/25 02:41:45;;;;;;;18.67;7.77;;;;;;;12.22;100.00;101668.94;2055017;28;20465;-64
2022/10/25 02:42:46;;;;;;;12.10;7.97;;;;;;;12.21;100.00;101664.56;2054909;28;20604;-64
2022/10/25 02:43:47;;;;;;;11.23;7.90;;;;;;;12.19;100.00;101672.53;2054791;28;20186;-65
2022/10/25 02:44:47;;;;;;;14.33;8.10;;;;;;;12.02;100.00;101648.56;2056631;28;20220;-64
2022/10/25 02:45:48;;;;;;;12.60;8.37;;;;;;;12.12;100.00;101678.19;2054858;28;20440;-64
2022/10/25 02:46:48;;;;;;;12.13;8.23;;;;;;;12.16;100.00;101672.59;2054646;28;20198;-63
2022/10/25 02:47:49;;;;;;;11.57;8.67;;;;;;;12.10;100.00;101663.91;2054296;28;20227;-64
2022/10/25 02:48:50;;;;;;;13.73;8.47;;;;;;;11.66;100.00;101607.78;2054714;28;20185;-64
2022/10/25 02:49:50;;;;;;;13.17;8.63;;;;;;;12.19;100.00;101675.31;2054417;28;20266;-64
2022/10/25 02:50:51;;;;;;;12.90;8.63;;;;;;;12.20;100.00;101684.44;2056424;28;20972;-64
2022/10/25 02:51:51;;;;;;;14.40;9.27;;;;;;;12.17;100.00;101688.03;2054665;28;20197;-64
2022/10/25 02:52:52;;;;;;;13.30;8.93;;;;;;;12.15;100.00;101691.22;2054846;28;20238;-63
2022/10/25 02:53:52;;;;;;;14.57;8.33;;;;;;;12.14;100.00;101697.25;2054675;28;20190;-64
2022/10/25 02:54:53;;;;;;;17.50;10.90;;;;;;;12.17;100.00;101699.16;2054624;28;20264;-64
2022/10/25 02:56:00;;;;;;;19.03;11.30;;;;;;;12.19;100.00;101705.09;2055204;28;20185;-64
2022/10/25 02:57:00;;;;;;;18.67;11.47;;;;;;;12.21;100.00;101706.28;2056660;28;20191;-64
2022/10/25 02:58:01;;;;;;;16.27;10.93;;;;;;;12.20;100.00;101709.47;2054212;28;20447;-64
2022/10/25 02:59:01;;;;;;;19.00;10.97;;;;;;;12.19;100.00;101710.66;2054838;28;20221;-64
2022/10/25 03:00:05;;;;;;;17.10;11.73;;;;;;;12.19;100.00;101708.66;2054257;28;20671;-64
2022/10/25 03:01:06;;;;;;;16.00;11.57;;;;;;;12.19;100.00;101711.44;2054847;28;20194;-64
2022/10/25 03:02:07;;;;;;;17.77;11.33;;;;;;;12.17;100.00;101711.06;2054033;28;20472;-64
2022/10/25 03:03:08;;;;;;;21.37;11.27;;;;;;;11.61;100.00;101636.78;2056584;28;20812;-64
2022/10/25 03:04:08;;;;;;;15.30;11.77;;;;;;;12.10;100.00;101708.38;2054496;28;20440;-64
2022/10/25 03:05:09;;;;;;;17.63;11.07;;;;;;;12.08;100.00;101716.34;2054453;28;20224;-64
2022/10/25 03:06:09;;;;;;;21.33;11.07;;;;;;;12.08;100.00;101723.88;2054291;28;20277;-63
2022/10/25 03:07:10;;;;;;;12.67;9.07;;;;;;;12.10;100.00;101716.72;2054238;28;20204;-63
2022/10/25 03:08:10;;;;;;;14.30;9.17;;;;;;;12.12;100.00;101716.28;2054614;28;20653;-64
2022/10/25 03:09:10;;;;;;;20.27;10.13;;;;;;;12.13;100.00;101717.88;2056064;28;20223;-64
2022/10/25 03:10:11;;;;;;;22.03;11.13;;;;;;;12.13;100.00;101712.31;2053228;28;20185;-64
2022/10/25 03:11:13;;;;;;;18.20;10.03;;;;;;;12.15;100.00;101715.47;2054993;28;20186;-64
2022/10/25 03:12:13;;;;;;;15.80;8.97;;;;;;;12.13;100.00;101717.88;2054742;28;20205;-64
2022/10/25 03:13:14;;;;;;;26.10;11.70;;;;;;;12.16;100.00;101714.25;2054808;28;20462;-65
2022/10/25 03:14:15;;;;;;;14.77;8.60;;;;;;;12.18;100.00;101707.09;2053416;28;20564;-64
2022/10/25 03:15:15;;;;;;;15.73;8.60;;;;;;;12.21;100.00;101711.03;2056518;28;20475;-64
2022/10/25 03:16:15;;;;;;;16.87;9.30;;;;;;;12.18;100.00;101695.19;2054447;28;20217;-64
2022/10/25 03:17:16;;;;;;;11.67;8.27;;;;;;;12.22;100.00;101699.50;2054593;28;20229;-64
2022/10/25 03:18:17;;;;;;;14.07;9.23;;;;;;;12.26;100.00;101699.44;2054309;28;20198;-64
2022/10/25 03:19:17;;;;;;;14.80;9.07;;;;;;;12.28;100.00;101692.25;2054785;28;20682;-65
2022/10/25 03:20:17;;;;;;;15.93;9.53;;;;;;;11.93;100.00;101628.06;2053988;28;20186;-64
2022/10/25 03:21:18;;;;;;;16.87;9.40;;;;;;;12.30;100.00;101684.28;2056558;28;20191;-64
2022/10/25 03:22:18;;;;;;;20.03;9.13;;;;;;;12.32;100.00;101681.09;2053796;28;20759;-64
2022/10/25 03:23:19;;;;;;;15.37;9.47;;;;;;;12.31;100.00;101680.31;2054496;28;20217;-64
2022/10/25 03:24:19;;;;;;;16.03;9.60;;;;;;;12.27;100.00;101684.34;2054133;28;20204;-64
2022/10/25 03:25:20;;;;;;;15.70;9.40;;;;;;;12.24;100.00;101688.75;2054395;28;20190;-64
2022/10/25 03:26:20;;;;;;;17.70;9.90;;;;;;;12.24;100.00;101687.97;2054601;28;20216;-64
2022/10/25 03:27:20;;;;;;;22.43;9.27;;;;;;;12.23;100.00;101695.50;2055758;28;20194;-64
2022/10/25 03:28:22;;;;;;;19.53;9.43;;;;;;;12.27;100.00;101687.91;2054421;28;20251;-64
2022/10/25 03:29:22;;;;;;;16.83;8.60;;;;;;;12.19;100.00;101671.75;2054511;28;20277;-64
2022/10/25 03:30:23;;;;;;;24.13;9.53;;;;;;;12.29;100.00;101682.72;2054009;28;20441;-64
2022/10/25 03:31:24;;;;;;;17.37;8.20;;;;;;;12.28;100.00;101685.91;2054517;28;20563;-64
2022/10/25 03:32:24;;;;;;;18.50;8.50;;;;;;;12.27;100.00;101678.78;2054869;28;20178;-64
2022/10/25 03:33:25;;;;;;;18.57;8.27;;;;;;;11.95;100.00;101629.19;2055783;28;20437;-64
2022/10/25 03:34:26;;;;;;;16.07;8.60;;;;;;;12.28;100.00;101681.16;2054278;28;20184;-64
2022/10/25 03:35:26;;;;;;;14.77;8.20;;;;;;;12.26;100.00;101685.53;2054621;28;20437;-65
2022/10/25 03:36:27;;;;;;;13.87;8.50;;;;;;;12.25;100.00;101690.31;2054585;28;20187;-64
2022/10/25 03:37:27;;;;;;;13.87;8.00;;;;;;;11.90;100.00;101635.25;2053636;28;20660;-65
2022/10/25 03:38:28;;;;;;;12.43;7.80;;;;;;;12.26;100.00;101689.13;2055537;28;20186;-64
2022/10/25 03:39:28;;;;;;;16.67;8.43;;;;;;;12.24;100.00;101680.41;2054324;28;20192;-64
2022/10/25 03:40:29;;;;;;;14.80;8.57;;;;;;;12.13;100.00;101667.84;2053776;28;20614;-64
2022/10/25 03:41:29;;;;;;;12.77;7.87;;;;;;;12.24;100.00;101682.41;2054606;28;20273;-64
2022/10/25 03:42:30;;;;;;;15.03;7.97;;;;;;;12.24;100.00;101679.63;2054357;28;20215;-64
2022/10/25 03:43:30;;;;;;;14.37;8.47;;;;;;;12.25;100.00;101678.41;2054317;28;20219;-64
2022/10/25 03:44:31;;;;;;;16.57;8.03;;;;;;;12.19;100.00;101675.31;2056104;28;20661;-64
2022/10/25 03:45:31;;;;;;;17.57;8.03;;;;;;;12.22;100.00;101682.03;2054315;28;20743;-64
2022/10/25 03:46:31;;;;;;;15.70;7.90;;;;;;;12.15;100.00;101666.22;2054432;28;20194;-64
2022/10/25 03:47:32;;;;;;;11.30;7.73;;;;;;;12.19;100.00;101677.31;2054283;28;20220;-64
2022/10/25 03:48:33;;;;;;;12.60;7.10;;;;;;;12.12;100.00;101669.06;2054319;28;20208;-64
2022/10/25 03:49:33;;;;;;;12.63;8.23;;;;;;;12.15;100.00;101673.78;2053906;28;20269;-64
2022/10/25 03:50:35;;;;;;;19.70;8.87;;;;;;;12.14;100.00;101684.13;2055966;28;20609;-64
2022/10/25 03:51:35;;;;;;;13.13;7.67;;;;;;;12.12;100.00;101682.94;2054470;28;20227;-64
2022/10/25 03:52:36;;;;;;;16.00;9.13;;;;;;;12.09;100.00;101690.13;2054459;28;20559;-64
2022/10/25 03:53:36;;;;;;;17.53;8.17;;;;;;;12.08;100.00;101680.22;2053618;28;20216;-64
2022/10/25 03:54:37;;;;;;;18.17;8.37;;;;;;;11.51;100.00;101596.03;2053825;28;20280;-64
2022/10/25 03:55:37;;;;;;;11.37;7.50;;;;;;;12.07;100.00;101684.22;2054099;28;20238;-64
2022/10/25 03:56:38;;;;;;;22.90;8.37;;;;;;;12.02;100.00;101678.31;2056389;28;20677;-64
2022/10/25 03:57:38;;;;;;;22.73;9.13;;;;;;;12.05;100.00;101691.38;2053894;28;20192;-64
2022/10/25 03:58:39;;;;;;;17.00;7.90;;;;;;;12.03;100.00;101683.47;2054237;28;20218;-64
2022/10/25 03:59:39;;;;;;;15.00;8.00;;;;;;;12.02;100.00;101683.88;2054079;28;20204;-64
2022/10/25 04:00:40;;;;;;;11.10;7.53;;;;;;;12.01;100.00;101682.31;2054050;28;20690;-64
2022/10/25 04:01:40;;;;;;;13.73;7.60;;;;;;;11.98;100.00;101680.34;2050998;28;21219;-64
2022/10/25 04:02:40;;;;;;;13.30;7.23;;;;;;;11.97;100.00;101682.38;2054596;28;20677;-64
2022/10/25 04:03:43;;;;;;;16.43;7.73;;;;;;;11.97;100.00;101679.59;2053724;28;20191;-64
2022/10/25 04:04:44;;;;;;;15.03;7.57;;;;;;;11.86;100.00;101656.72;2053390;28;20189;-63
2022/10/25 04:05:44;;;;;;;12.83;7.50;;;;;;;11.97;100.00;101682.38;2053724;28;20539;-64
2022/10/25 04:06:45;;;;;;;12.40;6.87;;;;;;;11.29;100.00;101572.53;2053193;28;20860;-63
2022/10/25 04:07:45;;;;;;;10.90;6.70;;;;;;;11.25;100.00;101580.09;2052826;28;20190;-63
2022/10/25 04:08:46;;;;;;;11.27;6.90;;;;;;;11.78;100.00;101660.00;2055805;28;20191;-63
2022/10/25 04:09:46;;;;;;;12.97;7.80;;;;;;;11.83;100.00;101668.66;2053640;28;20983;-64
2022/10/25 04:10:47;;;;;;;11.87;7.50;;;;;;;11.72;100.00;101654.09;2053377;28;20196;-60
2022/10/25 04:11:47;;;;;;;11.27;7.77;;;;;;;11.85;100.00;101669.03;2054179;28;20195;-67
2022/10/25 04:12:48;;;;;;;14.93;8.03;;;;;;;11.84;100.00;101661.09;2053576;28;20592;-61
2022/10/25 04:13:48;;;;;;;12.57;8.10;;;;;;;11.83;100.00;101662.31;2053262;28;20577;-65
2022/10/25 04:14:49;;;;;;;12.00;7.43;;;;;;;11.79;100.00;101661.56;2056460;28;20184;-60
2022/10/25 04:15:49;;;;;;;11.07;7.77;;;;;;;11.79;100.00;101665.13;2054839;28;20200;-60
2022/10/25 04:16:50;;;;;;;11.43;7.70;;;;;;;11.78;100.00;101660.78;2055159;28;20197;-59
2022/10/25 04:17:51;;;;;;;11.73;7.40;;;;;;;11.75;100.00;101649.72;2055005;28;20693;-59
2022/10/25 04:18:52;;;;;;;13.00;7.90;;;;;;;11.43;100.00;101615.97;2056067;28;20190;-63
2022/10/25 04:19:53;;;;;;;11.67;7.50;;;;;;;11.76;100.00;101659.59;2056884;28;20422;-61
2022/10/25 04:20:53;;;;;;;10.97;7.33;;;;;;;11.72;100.00;101656.88;2057270;28;20480;-61
2022/10/25 04:21:54;;;;;;;12.53;7.80;;;;;;;11.71;100.00;101657.28;2056288;28;20186;-57
2022/10/25 04:22:55;;;;;;;12.27;7.67;;;;;;;11.69;100.00;101665.25;2055864;28;20194;-60
2022/10/25 04:23:56;;;;;;;14.87;7.27;;;;;;;11.63;100.00;101648.25;2057430;28;20198;-59
2022/10/25 04:24:56;;;;;;;16.67;8.50;;;;;;;11.66;100.00;101664.09;2057530;28;20426;-60
2022/10/25 04:25:57;;;;;;;19.20;8.80;;;;;;;11.66;100.00;101666.88;2057381;28;20222;-60
2022/10/25 04:26:57;;;;;;;17.27;8.03;;;;;;;11.67;100.00;101659.31;2057479;28;20188;-60
2022/10/25 04:27:59;;;;;;;16.97;8.77;;;;;;;11.66;100.00;101658.53;2057083;28;20883;-62
2022/10/25 04:29:00;;;;;;;19.57;8.50;;;;;;;11.57;100.00;101643.53;2054879;28;20218;-59
2022/10/25 04:30:00;;;;;;;18.00;9.77;;;;;;;11.61;100.00;101659.00;2053175;28;20991;-61
2022/10/25 04:31:02;;;;;;;14.17;8.93;;;;;;;11.52;100.00;101655.91;2053651;28;20185;-62
2022/10/25 04:32:02;;;;;;;17.10;8.90;;;;;;;11.49;100.00;101647.63;2053953;28;20179;-62
2022/10/25 04:33:03;;;;;;;14.13;8.70;;;;;;;11.49;100.00;101656.75;2056246;28;20937;-61
2022/10/25 04:34:03;;;;;;;20.73;13.87;;;;;;;10.86;100.00;101565.06;2054872;28;20199;-60
2022/10/25 04:35:04;;;;;;;17.80;11.30;;;;;;;11.46;100.00;101656.75;2053966;28;20197;-64
2022/10/25 04:36:05;;;;;;;12.50;8.37;;;;;;;10.82;100.00;101554.00;2054843;28;20247;-62
2022/10/25 04:37:05;;;;;;;12.53;7.90;;;;;;;11.42;100.00;101648.47;2054459;28;20195;-62
2022/10/25 04:38:06;;;;;;;12.50;9.03;;;;;;;11.44;100.00;101642.50;2053506;28;20190;-62
2022/10/25 04:39:06;;;;;;;11.13;8.70;;;;;;;11.38;100.00;101638.63;2055350;28;20189;-61
2022/10/25 04:40:07;;;;;;;14.13;8.20;;;;;;;11.43;100.00;101647.28;2053598;28;20636;-61
2022/10/25 04:41:09;;;;;;;15.17;10.20;;;;;;;11.41;100.00;101646.91;2054092;28;20639;-59
2022/10/25 04:42:09;;;;;;;19.90;14.33;;;;;;;11.37;100.00;101651.69;2055169;28;20508;-60
2022/10/25 04:43:10;;;;;;;34.10;21.13;;;;;;;11.42;100.00;101656.81;2050005;28;20449;-60
2022/10/25 04:44:10;;;;;;;35.50;23.50;;;;;;;11.37;100.00;101646.16;2053474;28;20559;-60
2022/10/25 04:45:10;;;;;;;32.07;20.53;;;;;;;10.82;100.00;101565.09;2054844;28;20225;-60
2022/10/25 04:46:11;;;;;;;23.03;14.20;;;;;;;11.30;100.00;101653.75;2051581;28;20665;-62
2022/10/25 04:47:12;;;;;;;20.23;9.70;;;;;;;10.77;100.00;101576.63;2048562;28;20198;-62
2022/10/25 04:48:13;;;;;;;22.03;9.80;;;;;;;10.98;100.00;101615.25;2052370;28;20286;-62
2022/10/25 04:49:14;;;;;;;20.10;9.17;;;;;;;11.25;100.00;101663.34;2054251;28;20187;-63
2022/10/25 04:50:14;;;;;;;27.17;9.63;;;;;;;10.77;100.00;101579.38;2052335;28;20203;-63
2022/10/25 04:51:15;;;;;;;20.80;9.07;;;;;;;10.88;100.00;101602.28;2055097;28;20442;-63
2022/10/25 04:52:15;;;;;;;21.43;10.77;;;;;;;11.16;100.00;101645.56;2054651;28;20699;-64